createdAt,value
2019-05-01T00:00:36.913Z,81.89
2019-05-01T00:03:16.718Z,81.64
2019-05-01T00:05:47.193Z,81.70
2019-05-01T00:08:13.403Z,81.81
2019-05-01T00:10:39.392Z,82.16
2019-05-01T00:13:05.369Z,82.63
2019-05-01T00:15:33.182Z,82.49
2019-05-01T00:17:59.058Z,82.60
2019-05-01T00:20:25.098Z,82.30
2019-05-01T00:22:50.919Z,82.38
2019-05-01T00:25:17.000Z,82.57
2019-05-01T00:27:42.780Z,82.74
2019-05-01T00:30:10.519Z,83.13
2019-05-01T00:32:36.297Z,82.97
2019-05-01T00:35:05.021Z,82.77
2019-05-01T00:37:30.817Z,82.76
2019-05-01T00:39:56.599Z,83.22
2019-05-01T00:42:22.413Z,82.66
2019-05-01T00:44:48.185Z,83.04
2019-05-01T00:47:14.338Z,82.98
2019-05-01T00:49:40.133Z,82.86
2019-05-01T00:52:06.021Z,82.92
2019-05-01T00:54:33.750Z,83.30
2019-05-01T00:57:01.439Z,83.50
2019-05-01T00:59:29.248Z,83.27
2019-05-01T01:02:05.766Z,83.56
2019-05-01T01:04:31.555Z,83.69
2019-05-01T01:06:57.665Z,83.43
2019-05-01T01:09:23.466Z,83.69
2019-05-01T01:11:49.553Z,83.52
2019-05-01T01:14:15.652Z,83.34
2019-05-01T01:16:41.470Z,83.36
2019-05-01T01:19:07.259Z,83.25
2019-05-01T01:21:33.188Z,83.13
2019-05-01T01:24:00.093Z,83.65
2019-05-01T01:26:26.269Z,83.70
2019-05-01T01:28:52.402Z,83.72
2019-05-01T01:31:18.257Z,83.53
2019-05-01T01:33:44.192Z,83.47
2019-05-01T01:36:10.267Z,83.90
2019-05-01T01:38:36.079Z,84.02
2019-05-01T01:41:02.021Z,84.01
2019-05-01T01:43:36.091Z,83.84
2019-05-01T01:46:16.603Z,83.88
2019-05-01T01:48:42.385Z,84.01
2019-05-01T01:51:08.200Z,84.00
2019-05-01T01:53:34.337Z,84.16
2019-05-01T01:56:00.274Z,83.95
2019-05-01T01:58:26.679Z,83.59
2019-05-01T02:01:09.525Z,83.67
2019-05-01T02:03:33.016Z,83.94
2019-05-01T02:05:58.829Z,83.78
2019-05-01T02:08:24.745Z,84.19
2019-05-01T02:10:50.625Z,84.17
2019-05-01T02:13:16.878Z,83.90
2019-05-01T02:15:42.780Z,84.07
2019-05-01T02:18:08.621Z,84.43
2019-05-01T02:20:34.517Z,84.28
2019-05-01T02:23:00.631Z,84.60
2019-05-01T02:25:26.818Z,84.91
2019-05-01T02:28:11.482Z,85.24
2019-05-01T02:30:39.503Z,85.12
2019-05-01T02:33:05.491Z,85.13
2019-05-01T02:35:32.302Z,84.59
2019-05-01T02:37:58.503Z,84.65
2019-05-01T02:40:43.837Z,84.75
2019-05-01T02:43:13.245Z,84.76
2019-05-01T02:45:40.954Z,84.52
2019-05-01T02:48:09.938Z,84.59
2019-05-01T02:50:37.750Z,84.61
2019-05-01T02:53:04.021Z,84.46
2019-05-01T02:55:31.743Z,84.51
2019-05-01T02:57:58.277Z,84.90
2019-05-01T03:00:24.298Z,84.85
2019-05-01T03:02:50.288Z,84.97
2019-05-01T03:05:16.130Z,85.28
2019-05-01T03:07:42.337Z,85.21
2019-05-01T03:10:09.796Z,85.33
2019-05-01T03:12:38.158Z,85.69
2019-05-01T03:15:04.273Z,85.31
2019-05-01T03:17:36.599Z,85.39
2019-05-01T03:20:06.110Z,85.42
2019-05-01T03:22:34.814Z,85.12
2019-05-01T03:25:01.264Z,85.44
2019-05-01T03:27:27.385Z,85.51
2019-05-01T03:29:53.247Z,85.76
2019-05-01T03:32:19.988Z,85.44
2019-05-01T03:34:52.420Z,85.66
2019-05-01T03:37:14.484Z,85.90
2019-05-01T03:39:40.570Z,85.90
2019-05-01T03:42:06.417Z,85.83
2019-05-01T03:44:33.197Z,85.79
2019-05-01T03:47:01.289Z,85.93
2019-05-01T03:49:27.209Z,85.71
2019-05-01T03:51:53.373Z,85.68
2019-05-01T03:54:19.881Z,85.80
2019-05-01T03:56:46.216Z,85.74
2019-05-01T03:59:12.812Z,85.69
2019-05-01T04:01:40.875Z,84.98
2019-05-01T04:04:17.638Z,84.80
2019-05-01T04:06:43.697Z,85.08
2019-05-01T04:09:09.586Z,84.99
2019-05-01T04:11:35.461Z,85.16
2019-05-01T04:14:02.287Z,85.00
2019-05-01T04:16:28.509Z,84.93
2019-05-01T04:18:54.437Z,84.71
2019-05-01T04:21:22.237Z,84.92
2019-05-01T04:23:48.052Z,84.97
2019-05-01T04:26:13.954Z,84.63
2019-05-01T04:28:42.095Z,84.91
2019-05-01T04:31:25.250Z,84.52
2019-05-01T04:33:59.854Z,84.68
2019-05-01T04:36:27.703Z,84.99
2019-05-01T04:38:54.015Z,85.45
2019-05-01T04:41:20.132Z,85.27
2019-05-01T04:43:46.061Z,85.22
2019-05-01T04:46:12.150Z,84.63
2019-05-01T04:48:38.273Z,83.31
2019-05-01T04:51:04.452Z,83.42
2019-05-01T04:53:30.387Z,84.34
2019-05-01T04:56:40.063Z,84.45
2019-05-01T04:59:06.159Z,84.00
2019-05-01T05:01:52.400Z,84.30
2019-05-01T05:04:18.445Z,84.33
2019-05-01T05:06:44.467Z,84.83
2019-05-01T05:09:10.493Z,84.65
2019-05-01T05:11:49.904Z,84.13
2019-05-01T05:14:17.724Z,83.96
2019-05-01T05:16:45.441Z,84.28
2019-05-01T05:19:11.924Z,84.65
2019-05-01T05:21:37.953Z,84.56
2019-05-01T05:24:03.881Z,84.17
2019-05-01T05:26:29.939Z,84.16
2019-05-01T05:28:55.759Z,84.54
2019-05-01T05:31:23.490Z,84.47
2019-05-01T05:33:51.222Z,84.09
2019-05-01T05:36:18.582Z,83.32
2019-05-01T05:38:49.342Z,82.81
2019-05-01T05:41:16.656Z,81.68
2019-05-01T05:43:42.566Z,81.78
2019-05-01T05:46:08.661Z,81.74
2019-05-01T05:48:34.846Z,82.32
2019-05-01T05:51:10.312Z,83.18
2019-05-01T05:53:54.519Z,83.06
2019-05-01T05:56:24.130Z,82.26
2019-05-01T05:58:54.900Z,81.55
2019-05-01T06:01:23.865Z,80.84
2019-05-01T06:04:10.664Z,80.43
2019-05-01T06:06:47.589Z,79.81
2019-05-01T06:09:15.634Z,79.14
2019-05-01T06:11:55.480Z,79.44
2019-05-01T06:14:40.862Z,78.80
2019-05-01T06:17:14.354Z,78.19
2019-05-01T06:19:45.947Z,78.61
2019-05-01T06:22:14.815Z,78.00
2019-05-01T06:24:48.960Z,78.96
2019-05-01T06:27:15.403Z,77.98
2019-05-01T06:29:41.306Z,78.31
2019-05-01T06:32:07.488Z,77.61
2019-05-01T06:34:33.536Z,77.17
2019-05-01T06:36:59.461Z,77.04
2019-05-01T06:39:25.676Z,76.29
2019-05-01T06:41:51.508Z,76.27
2019-05-01T06:44:25.350Z,76.34
2019-05-01T06:46:58.151Z,75.91
2019-05-01T06:49:33.252Z,75.77
2019-05-01T06:52:01.400Z,75.22
2019-05-01T06:54:28.014Z,75.79
2019-05-01T06:56:54.628Z,75.62
2019-05-01T06:59:21.631Z,74.79
2019-05-01T07:01:48.460Z,74.62
2019-05-01T07:04:14.609Z,74.37
2019-05-01T07:06:40.793Z,73.62
2019-05-01T07:09:11.787Z,72.75
2019-05-01T07:11:36.573Z,72.29
2019-05-01T07:14:02.553Z,71.17
2019-05-01T07:16:28.356Z,69.85
2019-05-01T07:18:58.022Z,69.43
2019-05-01T07:21:27.659Z,66.43
2019-05-01T07:23:52.221Z,66.44
2019-05-01T07:26:19.204Z,65.38
2019-05-01T07:28:47.176Z,63.97
2019-05-01T07:31:16.647Z,63.30
2019-05-01T07:33:47.023Z,62.84
2019-05-01T07:36:15.230Z,61.42
2019-05-01T07:38:41.946Z,61.88
2019-05-01T07:41:08.064Z,61.52
2019-05-01T07:43:42.351Z,61.22
2019-05-01T07:46:18.416Z,60.75
2019-05-01T07:48:44.822Z,60.45
2019-05-01T07:51:10.934Z,61.06
2019-05-01T07:53:37.453Z,62.12
2019-05-01T07:56:03.637Z,61.43
2019-05-01T07:58:30.109Z,61.44
2019-05-01T08:00:57.855Z,61.18
2019-05-01T08:03:24.382Z,60.85
2019-05-01T08:05:50.218Z,61.23
2019-05-01T08:08:16.068Z,61.63
2019-05-01T08:10:41.866Z,62.10
2019-05-01T08:13:07.673Z,62.80
2019-05-01T08:15:33.495Z,60.65
2019-05-01T08:18:14.026Z,58.92
2019-05-01T08:20:58.236Z,58.67
2019-05-01T08:23:24.349Z,54.72
2019-05-01T08:25:50.559Z,55.43
2019-05-01T08:28:27.655Z,54.27
2019-05-01T08:30:59.753Z,53.01
2019-05-01T08:33:44.946Z,52.32
2019-05-01T08:36:11.659Z,52.65
2019-05-01T08:38:38.457Z,53.41
2019-05-01T08:41:04.253Z,50.20
2019-05-01T08:43:30.458Z,50.69
2019-05-01T08:46:00.737Z,52.00
2019-05-01T08:48:30.725Z,50.36
2019-05-01T08:50:59.086Z,48.79
2019-05-01T08:53:24.159Z,51.10
2019-05-01T08:55:50.213Z,50.41
2019-05-01T08:58:16.071Z,52.06
2019-05-01T09:00:41.856Z,52.06
2019-05-01T09:03:08.891Z,50.92
2019-05-01T09:05:34.736Z,50.37
2019-05-01T09:08:00.564Z,50.37
2019-05-01T09:10:26.385Z,53.52
2019-05-01T09:12:52.412Z,51.41
2019-05-01T09:15:18.237Z,51.82
2019-05-01T09:17:44.050Z,50.89
2019-05-01T09:20:10.068Z,51.17
2019-05-01T09:22:36.456Z,52.26
2019-05-01T09:25:02.772Z,51.08
2019-05-01T09:27:48.869Z,49.96
2019-05-01T09:30:35.531Z,48.03
2019-05-01T09:33:03.575Z,48.00
2019-05-01T09:35:29.690Z,48.42
2019-05-01T09:37:55.499Z,46.64
2019-05-01T09:40:21.418Z,47.32
2019-05-01T09:42:47.412Z,49.44
2019-05-01T09:45:13.882Z,49.29
2019-05-01T09:47:39.862Z,49.76
2019-05-01T09:50:06.056Z,50.20
2019-05-01T09:52:55.141Z,49.03
2019-05-01T09:55:24.913Z,50.68
2019-05-01T09:57:51.093Z,49.48
2019-05-01T10:00:19.212Z,49.55
2019-05-01T10:02:45.041Z,49.55
2019-05-01T10:05:11.080Z,46.49
2019-05-01T10:07:37.163Z,49.27
2019-05-01T10:10:06.117Z,45.81
2019-05-01T10:12:32.209Z,44.28
2019-05-01T10:14:58.346Z,44.28
2019-05-01T10:17:24.228Z,42.68
2019-05-01T10:19:50.333Z,42.83
2019-05-01T10:22:16.142Z,41.38
2019-05-01T10:24:41.971Z,43.41
2019-05-01T10:27:09.928Z,40.36
2019-05-01T10:29:47.001Z,42.89
2019-05-01T10:32:21.569Z,43.00
2019-05-01T10:35:04.558Z,39.69
2019-05-01T10:37:33.735Z,40.74
2019-05-01T10:39:58.594Z,39.32
2019-05-01T10:42:24.401Z,42.04
2019-05-01T10:44:50.185Z,39.18
2019-05-01T10:47:16.013Z,40.85
2019-05-01T10:49:41.843Z,38.39
2019-05-01T10:52:13.843Z,37.97
2019-05-01T10:54:35.443Z,38.76
2019-05-01T10:57:03.441Z,38.62
2019-05-01T10:59:29.187Z,42.92
2019-05-01T11:01:57.201Z,41.43
2019-05-01T11:04:23.488Z,40.45
2019-05-01T11:06:49.323Z,39.22
2019-05-01T11:09:15.160Z,38.57
2019-05-01T11:11:41.231Z,39.03
2019-05-01T11:14:07.064Z,36.83
2019-05-01T11:16:33.143Z,38.86
2019-05-01T11:18:59.270Z,37.88
2019-05-01T11:21:25.087Z,36.24
2019-05-01T11:23:50.903Z,36.83
2019-05-01T11:26:16.706Z,36.11
2019-05-01T11:28:42.812Z,35.70
2019-05-01T11:31:10.521Z,35.62
2019-05-01T11:33:44.368Z,34.75
2019-05-01T11:36:12.310Z,33.11
2019-05-01T11:38:45.877Z,36.19
2019-05-01T11:41:22.467Z,35.51
2019-05-01T11:43:48.262Z,34.08
2019-05-01T11:46:14.379Z,34.56
2019-05-01T11:48:40.157Z,33.40
2019-05-01T11:51:05.991Z,35.11
2019-05-01T11:53:31.816Z,34.22
2019-05-01T11:55:57.919Z,35.05
2019-05-01T11:58:23.734Z,33.63
2019-05-01T12:00:51.442Z,33.37
2019-05-01T12:03:17.605Z,32.81
2019-05-01T12:05:43.528Z,33.05
2019-05-01T12:08:09.578Z,33.78
2019-05-01T12:10:35.387Z,32.47
2019-05-01T12:13:01.221Z,33.98
2019-05-01T12:15:27.263Z,33.68
2019-05-01T12:17:53.377Z,34.45
2019-05-01T12:20:19.862Z,34.05
2019-05-01T12:22:47.955Z,34.30
2019-05-01T12:25:13.727Z,32.95
2019-05-01T12:27:39.513Z,34.52
2019-05-01T12:30:06.250Z,33.88
2019-05-01T12:32:32.077Z,33.86
2019-05-01T12:34:57.868Z,33.90
2019-05-01T12:37:31.372Z,33.84
2019-05-01T12:39:57.188Z,33.19
2019-05-01T12:42:24.927Z,33.55
2019-05-01T12:44:50.697Z,33.69
2019-05-01T12:47:18.430Z,34.56
2019-05-01T12:49:46.141Z,33.29
2019-05-01T12:52:13.874Z,33.83
2019-05-01T12:54:44.470Z,33.39
2019-05-01T12:57:10.500Z,33.15
2019-05-01T12:59:36.378Z,34.31
2019-05-01T13:02:02.203Z,34.67
2019-05-01T13:04:28.016Z,34.59
2019-05-01T13:06:56.064Z,33.70
2019-05-01T13:09:21.855Z,32.13
2019-05-01T13:11:47.687Z,33.38
2019-05-01T13:14:13.800Z,34.15
2019-05-01T13:16:39.853Z,33.75
2019-05-01T13:19:05.669Z,33.69
2019-05-01T13:21:31.603Z,32.13
2019-05-01T13:23:57.589Z,32.96
2019-05-01T13:26:34.544Z,31.64
2019-05-01T13:29:14.074Z,34.08
2019-05-01T13:31:42.154Z,31.50
2019-05-01T13:34:08.954Z,29.77
2019-05-01T13:36:34.847Z,31.33
2019-05-01T13:39:00.911Z,33.83
2019-05-01T13:41:27.141Z,32.80
2019-05-01T13:43:52.971Z,31.91
2019-05-01T13:46:18.786Z,33.23
2019-05-01T13:48:44.897Z,31.94
2019-05-01T13:51:10.978Z,32.26
2019-05-01T13:53:36.893Z,100.00
